Time;durP1;ratioP1;P1;durP2;ratioP2;P2;SDS_P1;SDS_P2;PMS_P1;PMS_P2;Temp;Humidity;BMP_temperature;BMP_pressure;BME280_temperature;BME280_humidity;BME280_pressure;Samples;Min_cycle;Max_cycle;Signal;HPM_P1;HPM_P2
2022/01/02 00:00:29;;;;;;;12.93;7.43;;;11.60;99.90;;;;;;4993216;28;20135;-86
2022/01/02 00:03:03;;;;;;;12.02;7.45;;;11.70;99.90;;;;;;4999833;28;20044;-87
2022/01/02 00:05:34;;;;;;;12.13;7.22;;;11.60;99.90;;;;;;4994334;28;20138;-86
2022/01/02 00:08:10;;;;;;;13.70;7.50;;;11.60;99.90;;;;;;4993758;28;20044;-87
2022/01/02 00:10:48;;;;;;;12.88;7.60;;;11.60;99.90;;;;;;4984308;28;20052;-87
2022/01/02 00:13:28;;;;;;;12.63;7.78;;;11.50;99.90;;;;;;4980650;28;21048;-87
2022/01/02 00:15:56;;;;;;;14.93;8.68;;;11.50;99.90;;;;;;4999584;28;20042;-87
2022/01/02 00:18:27;;;;;;;13.02;7.45;;;11.50;99.90;;;;;;4998690;28;20063;-88
2022/01/02 00:20:58;;;;;;;12.35;8.00;;;11.50;99.90;;;;;;5008757;28;20055;-86
2022/01/02 00:23:30;;;;;;;14.48;7.80;;;11.50;99.90;;;;;;4992630;28;20043;-86
2022/01/02 00:26:04;;;;;;;13.98;7.93;;;11.40;99.90;;;;;;4983040;28;20059;-87
2022/01/02 00:28:31;;;;;;;12.95;8.05;;;11.40;99.90;;;;;;5007459;28;20404;-88
2022/01/02 00:30:58;;;;;;;13.18;7.78;;;11.40;99.90;;;;;;5002905;28;20936;-86
2022/01/02 00:33:25;;;;;;;14.75;7.85;;;11.40;99.90;;;;;;4983029;28;20031;-87
2022/01/02 00:35:51;;;;;;;12.55;7.75;;;11.40;99.90;;;;;;4995850;28;20141;-87
2022/01/02 00:38:21;;;;;;;12.50;7.70;;;11.40;99.90;;;;;;4994348;28;20884;-87
2022/01/02 00:40:49;;;;;;;12.13;7.28;;;11.40;99.90;;;;;;4987531;28;20056;-87
2022/01/02 00:43:26;;;;;;;12.88;7.30;;;11.40;99.90;;;;;;4990192;28;20059;-87
2022/01/02 00:45:53;;;;;;;12.43;7.85;;;11.40;99.90;;;;;;5008750;28;20055;-88
2022/01/02 00:48:29;;;;;;;13.40;7.80;;;11.40;99.90;;;;;;5010463;28;20083;-88
2022/01/02 00:51:07;;;;;;;12.45;7.65;;;11.40;99.90;;;;;;4973977;28;20045;-87
2022/01/02 00:53:34;;;;;;;11.82;7.75;;;11.40;99.90;;;;;;5011627;28;20095;-88
2022/01/02 00:56:02;;;;;;;11.75;7.20;;;11.40;99.90;;;;;;4993809;28;20404;-87
2022/01/02 00:58:42;;;;;;;12.45;7.35;;;11.40;99.90;;;;;;5005988;28;20047;-87
2022/01/02 01:01:13;;;;;;;13.30;7.53;;;11.40;99.90;;;;;;5013067;28;20472;-88
2022/01/02 01:03:41;;;;;;;12.10;7.43;;;11.40;99.90;;;;;;4998098;28;20043;-87
2022/01/02 01:06:10;;;;;;;12.50;7.75;;;11.40;99.90;;;;;;4989895;28;20047;-87
2022/01/02 01:08:40;;;;;;;13.45;7.32;;;11.40;99.90;;;;;;4999056;28;20056;-88
2022/01/02 01:11:11;;;;;;;12.43;7.30;;;11.40;99.90;;;;;;4991130;28;20043;-88
2022/01/02 01:13:37;;;;;;;15.88;8.13;;;11.40;99.90;;;;;;5013930;28;20050;-88
2022/01/02 01:16:03;;;;;;;12.70;8.07;;;11.40;99.90;;;;;;4984228;28;20055;-87
2022/01/02 01:18:29;;;;;;;13.13;7.22;;;11.40;99.90;;;;;;5012973;28;20487;-90
2022/01/02 01:20:55;;;;;;;13.20;8.10;;;11.40;99.90;;;;;;5003342;28;20758;-88
2022/01/02 01:23:23;;;;;;;13.20;7.57;;;11.40;99.90;;;;;;5014135;28;20059;-87
2022/01/02 01:25:50;;;;;;;14.52;7.55;;;11.40;99.90;;;;;;5016100;28;20162;-89
2022/01/02 01:28:16;;;;;;;13.93;7.70;;;11.30;99.90;;;;;;5018407;28;20600;-88
2022/01/02 01:30:43;;;;;;;13.27;8.18;;;11.40;99.90;;;;;;5000677;28;20154;-89
2022/01/02 01:33:10;;;;;;;13.90;8.00;;;11.30;99.90;;;;;;5019151;28;20056;-87
2022/01/02 01:35:40;;;;;;;13.05;8.18;;;11.40;99.90;;;;;;5007351;28;20159;-88
2022/01/02 01:38:08;;;;;;;14.43;8.13;;;11.30;99.90;;;;;;4995115;28;20594;-88
2022/01/02 01:40:40;;;;;;;14.07;8.25;;;11.40;99.90;;;;;;4986310;28;20054;-88
2022/01/02 01:43:09;;;;;;;16.58;8.68;;;11.30;99.90;;;;;;5003403;28;20059;-88
2022/01/02 01:45:35;;;;;;;14.52;8.23;;;11.30;99.90;;;;;;5019714;28;20512;-89
2022/01/02 01:48:05;;;;;;;17.20;8.68;;;11.30;99.90;;;;;;4999261;28;20086;-90
2022/01/02 01:50:43;;;;;;;15.02;7.97;;;11.30;99.90;;;;;;4998123;28;20827;-89
2022/01/02 01:53:09;;;;;;;15.57;8.32;;;11.30;99.90;;;;;;5000023;28;20051;-90
2022/01/02 01:55:37;;;;;;;15.68;8.00;;;11.30;99.90;;;;;;5003745;28;20472;-89
2022/01/02 01:58:04;;;;;;;15.75;8.57;;;11.30;99.90;;;;;;4989090;28;20054;-90
2022/01/02 02:00:33;;;;;;;14.52;8.48;;;11.30;99.90;;;;;;5006200;28;20055;-87
2022/01/02 02:02:59;;;;;;;14.57;8.13;;;11.30;99.90;;;;;;5027614;28;20431;-89
2022/01/02 02:05:25;;;;;;;17.55;8.60;;;11.30;99.90;;;;;;5022328;28;20058;-89
2022/01/02 02:07:51;;;;;;;16.52;8.68;;;11.30;99.90;;;;;;4993143;28;20036;-89
2022/01/02 02:11:03;;;;;;;14.50;8.57;;;11.30;99.90;;;;;;5018927;28;20058;-89
2022/01/02 02:13:09;;;;;;;15.52;8.82;;;11.30;99.90;;;;;;5006403;28;20143;-91
2022/01/02 02:15:35;;;;;;;15.85;9.32;;;11.30;99.90;;;;;;5013373;28;20498;-88
2022/01/02 02:18:01;;;;;;;13.73;8.73;;;11.30;99.90;;;;;;5019287;28;20035;-89
2022/01/02 02:20:32;;;;;;;14.50;8.68;;;11.30;99.90;;;;;;5021960;28;20039;-89
2022/01/02 02:23:00;;;;;;;14.32;8.40;;;11.30;99.90;;;;;;5017666;28;20058;-90
2022/01/02 02:25:34;;;;;;;14.00;8.52;;;11.30;99.90;;;;;;5024800;28;20070;-90
2022/01/02 02:28:10;;;;;;;14.57;8.77;;;11.30;99.90;;;;;;5021821;28;20154;-92
2022/01/02 02:30:38;;;;;;;14.32;8.57;;;11.30;99.90;;;;;;4994813;28;20047;-89
2022/01/02 02:33:06;;;;;;;13.85;8.40;;;11.40;99.90;;;;;;5003115;28;20418;-88
2022/01/02 02:35:34;;;;;;;17.65;8.65;;;11.30;99.90;;;;;;5018001;28;20087;-93
2022/01/02 02:38:06;;;;;;;14.98;8.63;;;11.30;99.90;;;;;;5020684;28;20048;-90
2022/01/02 02:40:35;;;;;;;15.65;8.27;;;11.30;99.90;;;;;;4992706;28;20305;-90
2022/01/02 02:43:22;;;;;;;18.17;9.27;;;11.20;99.90;;;;;;4986525;28;20579;-89
2022/01/02 02:51:26;;;;;;;16.33;8.30;;;11.20;99.90;;;;;;5008559;28;20079;-89
2022/01/02 02:53:53;;;;;;;14.25;8.90;;;11.20;99.90;;;;;;5015636;28;20470;-90
2022/01/02 02:56:25;;;;;;;16.00;9.05;;;11.20;99.90;;;;;;4995832;28;20052;-87
2022/01/02 02:58:55;;;;;;;13.77;8.63;;;11.20;99.90;;;;;;5024714;28;20419;-87
2022/01/02 03:01:23;;;;;;;14.07;8.43;;;11.20;99.90;;;;;;5002624;28;20044;-90
2022/01/02 03:03:49;;;;;;;15.07;8.93;;;11.20;99.90;;;;;;5005160;28;20036;-92
2022/01/02 03:06:24;;;;;;;16.60;8.57;;;11.20;99.90;;;;;;4995435;28;20039;-89
2022/01/02 03:08:51;;;;;;;14.15;8.60;;;11.10;99.90;;;;;;5004040;28;20055;-91
2022/01/02 03:11:20;;;;;;;14.20;8.10;;;11.20;99.90;;;;;;5022158;28;21084;-89
2022/01/02 03:13:49;;;;;;;15.27;8.15;;;11.10;99.90;;;;;;5021512;28;20047;-91
2022/01/02 03:16:15;;;;;;;13.95;8.73;;;11.20;99.90;;;;;;5001430;28;20369;-88
2022/01/02 03:18:41;;;;;;;14.93;8.23;;;11.20;99.90;;;;;;5003801;28;20048;-90
2022/01/02 03:21:07;;;;;;;14.82;7.85;;;11.20;99.90;;;;;;4975798;28;20042;-90
2022/01/02 03:23:33;;;;;;;13.73;8.27;;;11.20;99.90;;;;;;4989816;28;20050;-90
2022/01/02 03:26:02;;;;;;;14.15;8.05;;;11.20;99.90;;;;;;4998175;28;20055;-89
2022/01/02 03:28:28;;;;;;;15.77;8.10;;;11.30;99.90;;;;;;4984558;28;20371;-91
2022/01/02 03:30:56;;;;;;;14.00;8.10;;;11.30;99.90;;;;;;5016210;28;20058;-91
2022/01/02 03:33:22;;;;;;;12.10;7.43;;;11.30;99.90;;;;;;4978811;28;20039;-89
2022/01/02 03:35:48;;;;;;;14.85;8.18;;;11.30;99.90;;;;;;4986499;28;20044;-90
2022/01/02 03:38:14;;;;;;;14.45;7.80;;;11.30;99.90;;;;;;4991972;28;20537;-88
2022/01/02 03:40:40;;;;;;;16.08;7.95;;;11.30;99.90;;;;;;4984227;28;20054;-91
2022/01/02 03:43:08;;;;;;;15.65;7.78;;;11.30;99.90;;;;;;4994688;28;20569;-89
2022/01/02 03:45:36;;;;;;;14.80;7.65;;;11.40;99.90;;;;;;4995462;28;20170;-89
2022/01/02 03:48:02;;;;;;;15.93;8.55;;;11.30;99.90;;;;;;4996611;28;21016;-90
2022/01/02 03:50:28;;;;;;;16.58;7.93;;;11.30;99.90;;;;;;5019972;28;20043;-90
2022/01/02 03:52:54;;;;;;;16.25;8.32;;;11.30;99.90;;;;;;4997610;28;20117;-92
2022/01/02 03:55:20;;;;;;;16.02;8.20;;;11.30;99.90;;;;;;4991578;28;20482;-90
2022/01/02 03:57:46;;;;;;;14.23;7.75;;;11.30;99.90;;;;;;4993139;28;20919;-90
2022/01/02 04:00:14;;;;;;;14.80;7.55;;;11.30;99.90;;;;;;5001810;28;20043;-88
2022/01/02 04:02:41;;;;;;;15.52;7.70;;;11.40;99.90;;;;;;4995045;28;20055;-87
2022/01/02 04:05:12;;;;;;;17.80;8.48;;;11.40;99.90;;;;;;5000506;28;20063;-88
2022/01/02 04:07:39;;;;;;;17.08;8.07;;;11.30;99.90;;;;;;5000808;28;20050;-89
2022/01/02 04:10:08;;;;;;;16.63;8.02;;;11.40;99.90;;;;;;4996625;28;20569;-88
2022/01/02 04:12:35;;;;;;;17.25;8.02;;;11.40;99.90;;;;;;5014108;28;20240;-90
2022/01/02 04:15:03;;;;;;;18.73;7.68;;;11.40;99.90;;;;;;4997227;28;20075;-92
2022/01/02 04:17:31;;;;;;;16.50;7.40;;;11.50;99.90;;;;;;4993732;28;20939;-89
2022/01/02 04:19:57;;;;;;;15.50;7.60;;;11.50;99.90;;;;;;4976671;28;20642;-91
2022/01/02 04:22:23;;;;;;;14.32;7.32;;;11.50;99.90;;;;;;4985071;28;20265;-88
2022/01/02 04:24:49;;;;;;;17.92;7.40;;;11.50;99.90;;;;;;5020113;28;20849;-90
2022/01/02 04:27:19;;;;;;;17.13;7.90;;;11.50;99.90;;;;;;4995026;28;20206;-87
2022/01/02 04:29:45;;;;;;;16.80;8.10;;;11.50;99.90;;;;;;5015624;28;20130;-90
2022/01/02 04:32:20;;;;;;;15.57;7.85;;;11.50;99.90;;;;;;5002460;28;20083;-89
2022/01/02 04:34:49;;;;;;;16.50;6.82;;;11.60;99.90;;;;;;5005672;28;20589;-87
2022/01/02 04:37:15;;;;;;;15.25;7.05;;;11.60;99.90;;;;;;5015845;28;20992;-90
2022/01/02 04:39:41;;;;;;;17.60;7.70;;;11.60;99.90;;;;;;4984008;28;20047;-88
2022/01/02 04:42:07;;;;;;;16.30;7.53;;;11.60;99.90;;;;;;5020296;28;20140;-91
2022/01/02 04:44:34;;;;;;;15.73;7.57;;;11.60;99.90;;;;;;5011426;28;20059;-92
2022/01/02 04:47:00;;;;;;;19.38;7.25;;;11.60;99.90;;;;;;4998003;28;20541;-91
2022/01/02 04:49:26;;;;;;;17.77;7.25;;;11.60;99.90;;;;;;5015567;28;20047;-92
2022/01/02 04:51:53;;;;;;;15.35;7.05;;;11.70;99.90;;;;;;4974097;28;20854;-88
2022/01/02 04:54:22;;;;;;;16.42;6.88;;;11.70;99.90;;;;;;5000108;28;20347;-89
2022/01/02 04:56:48;;;;;;;17.58;7.10;;;11.70;99.90;;;;;;4984157;28;20311;-90
2022/01/02 04:59:14;;;;;;;17.27;6.43;;;11.70;99.90;;;;;;4996656;28;20523;-91
2022/01/02 05:01:40;;;;;;;17.75;6.07;;;11.70;99.90;;;;;;5020917;28;20896;-88
2022/01/02 05:04:06;;;;;;;17.00;5.97;;;11.70;99.90;;;;;;4997569;28;20043;-93
2022/01/02 05:06:35;;;;;;;14.88;6.35;;;11.80;99.90;;;;;;4992917;28;20048;-90
2022/01/02 05:09:01;;;;;;;16.85;6.50;;;11.80;99.90;;;;;;4985591;28;20047;-89
2022/01/02 05:11:29;;;;;;;15.43;5.97;;;11.80;99.90;;;;;;5006834;28;20044;-90
2022/01/02 05:13:55;;;;;;;12.82;6.18;;;11.80;99.90;;;;;;5019161;28;20082;-89
2022/01/02 05:16:20;;;;;;;13.15;6.22;;;11.80;99.90;;;;;;4982626;28;20130;-88
2022/01/02 05:18:49;;;;;;;15.23;6.32;;;11.80;99.90;;;;;;4983256;28;20372;-90
2022/01/02 05:21:14;;;;;;;16.95;6.47;;;11.80;99.90;;;;;;4985947;28;20340;-90
2022/01/02 05:23:42;;;;;;;18.70;6.07;;;11.90;99.90;;;;;;5002963;28;20043;-88
2022/01/02 05:26:13;;;;;;;17.48;6.05;;;11.90;99.90;;;;;;4975129;28;20043;-90
2022/01/02 05:28:41;;;;;;;14.38;5.85;;;12.00;99.90;;;;;;5016138;28;20044;-90
2022/01/02 05:31:07;;;;;;;13.80;5.47;;;12.00;99.90;;;;;;4995337;28;20051;-90
2022/01/02 05:33:33;;;;;;;16.95;5.85;;;12.00;99.90;;;;;;4984042;28;20268;-90
2022/01/02 05:35:59;;;;;;;18.90;5.93;;;12.10;99.90;;;;;;4975363;28;20401;-90
2022/01/02 05:38:27;;;;;;;15.48;5.80;;;12.10;99.90;;;;;;4994416;28;20327;-90
2022/01/02 05:41:09;;;;;;;17.48;6.03;;;12.10;99.90;;;;;;4984429;28;20183;-92
2022/01/02 05:43:37;;;;;;;14.80;5.15;;;12.20;99.90;;;;;;5017285;28;20051;-89
2022/01/02 05:46:05;;;;;;;15.00;4.72;;;12.20;99.90;;;;;;5017652;28;20216;-91
2022/01/02 05:48:36;;;;;;;15.93;4.95;;;12.20;99.90;;;;;;4988048;28;20075;-90
2022/01/02 05:51:02;;;;;;;15.40;5.03;;;12.20;99.90;;;;;;5016299;28;20527;-91
2022/01/02 05:53:33;;;;;;;15.52;5.03;;;12.30;99.90;;;;;;4997999;28;20096;-91
2022/01/02 05:55:59;;;;;;;14.30;4.60;;;12.30;99.90;;;;;;4992451;28;20039;-91
2022/01/02 05:58:28;;;;;;;14.57;4.70;;;12.40;99.90;;;;;;5006516;28;20042;-90
2022/01/02 06:00:53;;;;;;;14.60;5.15;;;12.30;99.90;;;;;;4990549;28;20153;-92
2022/01/02 06:03:19;;;;;;;14.38;4.60;;;12.30;99.90;;;;;;4999599;28;20313;-89
2022/01/02 06:05:46;;;;;;;14.63;4.70;;;12.40;99.90;;;;;;4989099;28;20603;-87
2022/01/02 06:08:12;;;;;;;12.85;4.53;;;12.40;99.90;;;;;;5001298;28;20449;-89
2022/01/02 06:10:44;;;;;;;14.40;4.80;;;12.40;99.90;;;;;;4997940;28;20044;-89
2022/01/02 06:13:12;;;;;;;14.55;4.90;;;12.40;99.90;;;;;;4991649;28;20052;-88
2022/01/02 06:15:41;;;;;;;17.65;4.82;;;12.40;99.90;;;;;;5006306;28;20157;-94
2022/01/02 06:18:09;;;;;;;17.05;4.97;;;12.40;99.90;;;;;;5002238;28;20412;-91
2022/01/02 06:20:35;;;;;;;14.23;5.32;;;12.30;99.90;;;;;;5014210;28;20058;-92
2022/01/02 06:23:01;;;;;;;15.18;5.05;;;12.30;99.90;;;;;;4992837;28;20079;-92
2022/01/02 06:25:30;;;;;;;16.42;5.10;;;12.30;99.90;;;;;;5007895;28;20036;-94
2022/01/02 06:27:56;;;;;;;16.13;5.28;;;12.20;99.90;;;;;;5005258;28;20075;-96
2022/01/02 06:30:22;;;;;;;14.77;5.32;;;12.20;99.90;;;;;;5011147;28;20122;-93
2022/01/02 06:32:57;;;;;;;13.90;5.43;;;12.20;99.90;;;;;;5003859;28;20622;-90
2022/01/02 06:35:31;;;;;;;15.43;5.28;;;12.20;99.90;;;;;;5004251;28;20050;-92
2022/01/02 06:38:09;;;;;;;16.55;5.75;;;12.20;99.90;;;;;;5030012;28;20063;-91
2022/01/02 06:40:35;;;;;;;13.65;5.38;;;12.10;99.90;;;;;;5006059;28;20150;-94
2022/01/02 06:43:01;;;;;;;13.48;5.43;;;12.10;99.90;;;;;;4992857;28;21124;-92
2022/01/02 06:45:34;;;;;;;12.80;5.70;;;12.10;99.90;;;;;;5002179;28;20550;-95
2022/01/02 06:48:01;;;;;;;14.10;5.72;;;12.00;99.90;;;;;;5025423;28;20388;-92
2022/01/02 06:50:32;;;;;;;15.32;5.80;;;12.00;99.90;;;;;;5005701;28;21158;-93
2022/01/02 06:53:00;;;;;;;16.67;5.65;;;12.00;99.90;;;;;;5024128;28;20093;-94
2022/01/02 06:55:26;;;;;;;13.50;5.70;;;12.00;99.90;;;;;;5010409;28;20047;-92
2022/01/02 06:57:55;;;;;;;16.42;5.90;;;12.00;99.90;;;;;;5004156;28;20040;-92
2022/01/02 07:00:24;;;;;;;14.13;6.15;;;12.00;99.90;;;;;;5003845;28;20470;-95
2022/01/02 07:03:10;;;;;;;13.88;5.75;;;12.00;99.90;;;;;;5020260;28;20083;-93
2022/01/02 07:05:38;;;;;;;12.48;5.97;;;11.90;99.90;;;;;;5012861;28;20049;-92
2022/01/02 07:08:07;;;;;;;14.88;5.97;;;12.00;99.90;;;;;;4996919;28;20823;-93
2022/01/02 07:10:33;;;;;;;15.32;5.88;;;11.90;99.90;;;;;;5008056;28;20043;-91
2022/01/02 07:13:03;;;;;;;16.58;5.90;;;11.90;99.90;;;;;;5007445;28;20241;-93
2022/01/02 07:15:28;;;;;;;15.60;5.72;;;12.00;99.90;;;;;;4991839;28;20043;-88
2022/01/02 07:17:54;;;;;;;14.68;5.72;;;11.90;99.90;;;;;;4994108;28;20043;-92
2022/01/02 07:20:23;;;;;;;15.93;6.10;;;12.00;99.90;;;;;;4995633;28;20238;-94
2022/01/02 07:22:51;;;;;;;15.20;5.38;;;12.00;99.90;;;;;;5009155;28;20047;-93
2022/01/02 07:25:19;;;;;;;15.40;6.43;;;12.00;99.90;;;;;;4997173;28;20065;-93
2022/01/02 07:27:45;;;;;;;11.25;5.70;;;11.90;99.90;;;;;;5006372;28;20146;-90
2022/01/02 07:30:20;;;;;;;14.18;6.20;;;11.90;99.90;;;;;;4991965;28;20048;-93
2022/01/02 07:32:46;;;;;;;13.27;5.78;;;12.00;99.90;;;;;;5022079;28;20493;-89
2022/01/02 07:35:19;;;;;;;13.07;5.90;;;11.90;99.90;;;;;;5002390;28;20040;-93
2022/01/02 07:37:48;;;;;;;15.75;5.50;;;11.90;99.90;;;;;;5015707;28;20040;-90
2022/01/02 07:40:13;;;;;;;15.75;5.55;;;12.00;99.90;;;;;;5003401;28;20043;-92
2022/01/02 07:42:39;;;;;;;14.13;6.03;;;11.90;99.90;;;;;;4981076;28;20350;-91
2022/01/02 07:45:05;;;;;;;11.82;5.32;;;12.00;99.90;;;;;;4999980;28;20043;-96
2022/01/02 07:47:40;;;;;;;14.90;5.70;;;12.00;99.90;;;;;;5007144;28;20051;-95
2022/01/02 07:50:09;;;;;;;14.73;6.03;;;12.00;99.90;;;;;;4989310;28;20055;-92
2022/01/02 07:53:03;;;;;;;13.65;5.25;;;11.90;99.90;;;;;;5014105;28;20828;-90
2022/01/02 07:55:28;;;;;;;14.10;5.35;;;12.00;99.90;;;;;;4988708;28;20669;-90
2022/01/02 07:57:54;;;;;;;11.45;5.40;;;12.00;99.90;;;;;;5006815;28;20044;-91
2022/01/02 08:00:23;;;;;;;12.07;4.97;;;12.00;99.90;;;;;;5035494;28;20076;-95
2022/01/02 08:03:01;;;;;;;13.43;5.50;;;12.00;99.90;;;;;;5014182;28;20138;-92
2022/01/02 08:05:46;;;;;;;10.82;4.97;;;12.00;99.90;;;;;;5013346;28;20059;-93
2022/01/02 08:08:49;;;;;;;13.13;5.38;;;12.00;99.90;;;;;;5020364;28;20664;-94
2022/01/02 08:11:18;;;;;;;14.32;5.55;;;12.00;99.90;;;;;;5002982;28;20682;-92
2022/01/02 08:14:00;;;;;;;12.02;5.32;;;12.00;99.90;;;;;;5022651;28;20044;-96
2022/01/02 08:16:53;;;;;;;11.52;4.95;;;12.00;99.90;;;;;;5018069;28;20142;-94
2022/01/02 08:19:28;;;;;;;12.40;5.00;;;11.90;99.90;;;;;;5017543;28;20519;-95
2022/01/02 08:21:54;;;;;;;13.10;5.40;;;11.90;99.90;;;;;;5011048;28;20108;-94
2022/01/02 08:25:16;;;;;;;12.13;5.28;;;11.90;99.90;;;;;;5008349;28;20111;-94
2022/01/02 08:27:42;;;;;;;13.55;5.28;;;11.90;99.90;;;;;;5015390;28;20489;-96
2022/01/02 08:30:11;;;;;;;13.13;5.10;;;12.00;99.90;;;;;;5018310;28;20040;-95
2022/01/02 08:32:45;;;;;;;13.02;4.82;;;11.90;99.90;;;;;;5004562;28;20290;-95
2022/01/02 08:35:11;;;;;;;13.35;5.30;;;12.00;99.90;;;;;;5012097;28;20822;-90
2022/01/02 08:37:37;;;;;;;13.90;5.10;;;11.90;99.90;;;;;;5002058;28;20061;-93
2022/01/02 08:40:10;;;;;;;14.95;4.80;;;12.00;99.90;;;;;;5008388;28;20102;-93
2022/01/02 08:42:36;;;;;;;9.40;4.30;;;11.90;99.90;;;;;;5016336;28;20047;-92
2022/01/02 08:45:02;;;;;;;11.10;5.03;;;12.00;99.90;;;;;;5020430;28;20494;-94
2022/01/02 08:47:28;;;;;;;12.73;5.28;;;12.00;99.90;;;;;;5011390;28;20543;-89
2022/01/02 08:49:56;;;;;;;14.30;5.32;;;11.90;99.90;;;;;;4994752;28;20065;-90
2022/01/02 08:52:25;;;;;;;13.23;4.85;;;11.90;99.90;;;;;;4992993;28;20050;-94
2022/01/02 08:54:51;;;;;;;13.45;4.95;;;11.90;99.90;;;;;;5028807;28;20036;-90
2022/01/02 08:57:17;;;;;;;13.80;4.95;;;11.90;99.90;;;;;;5000382;28;20087;-92
2022/01/02 08:59:43;;;;;;;13.98;4.93;;;11.80;99.90;;;;;;5012025;28;20047;-90
2022/01/02 09:02:14;;;;;;;11.50;4.95;;;11.80;99.90;;;;;;5021215;28;20328;-88
2022/01/02 09:04:46;;;;;;;13.48;5.38;;;11.80;99.90;;;;;;5008056;28;20048;-91
2022/01/02 09:07:12;;;;;;;11.75;5.05;;;11.70;99.90;;;;;;5007462;28;20134;-93
2022/01/02 09:09:58;;;;;;;13.85;5.35;;;11.70;99.90;;;;;;5008291;28;20156;-91
2022/01/02 09:12:32;;;;;;;11.75;5.10;;;11.70;99.90;;;;;;5011768;28;20042;-91
2022/01/02 09:15:24;;;;;;;11.90;4.90;;;11.70;99.90;;;;;;5031797;28;20339;-96
2022/01/02 09:17:54;;;;;;;13.98;5.20;;;11.70;99.90;;;;;;5001176;28;20154;-95
2022/01/02 09:20:21;;;;;;;14.50;5.25;;;11.60;99.90;;;;;;5020807;28;20815;-95
2022/01/02 09:22:51;;;;;;;14.05;5.32;;;11.70;99.90;;;;;;5002301;28;20049;-89
2022/01/02 09:25:37;;;;;;;10.35;4.72;;;11.60;99.90;;;;;;5007378;28;20043;-95
2022/01/02 09:28:06;;;;;;;13.73;5.30;;;11.70;99.90;;;;;;5028971;28;20039;-93
2022/01/02 09:30:31;;;;;;;11.02;5.22;;;11.70;99.90;;;;;;5010270;28;20397;-88
2022/01/02 09:33:08;;;;;;;12.05;5.15;;;11.80;99.90;;;;;;5008230;28;20044;-91
2022/01/02 09:35:36;;;;;;;12.27;4.63;;;11.90;99.90;;;;;;5021050;28;20051;-93
2022/01/02 09:38:02;;;;;;;15.10;4.90;;;11.90;99.90;;;;;;5011342;28;20104;-93
2022/01/02 09:40:29;;;;;;;11.20;5.18;;;11.90;99.90;;;;;;5015178;28;20779;-91
2022/01/02 09:42:57;;;;;;;11.93;4.93;;;11.90;99.90;;;;;;5018176;28;20051;-93
2022/01/02 09:45:29;;;;;;;11.55;5.00;;;11.90;99.90;;;;;;4983410;28;20412;-92
2022/01/02 09:48:02;;;;;;;12.95;5.00;;;11.90;99.90;;;;;;4982862;28;20036;-91
2022/01/02 09:50:33;;;;;;;13.47;5.70;;;11.90;99.90;;;;;;4994366;28;20044;-94
2022/01/02 09:53:02;;;;;;;13.27;4.35;;;11.90;99.90;;;;;;4982039;28;20298;-92
2022/01/02 09:55:54;;;;;;;11.00;5.15;;;11.90;99.90;;;;;;4968021;28;20855;-96
2022/01/02 09:58:22;;;;;;;11.73;4.47;;;11.90;99.90;;;;;;5011274;28;21009;-95
2022/01/02 10:00:48;;;;;;;11.55;5.30;;;12.00;99.90;;;;;;4989314;28;20818;-92
2022/01/02 10:03:15;;;;;;;11.60;4.97;;;12.00;99.90;;;;;;4952756;28;20101;-91
2022/01/02 10:05:59;;;;;;;12.50;5.32;;;12.00;99.90;;;;;;4981491;28;20041;-89
2022/01/02 10:08:31;;;;;;;12.38;4.95;;;12.00;99.90;;;;;;4984196;28;20048;-92
2022/01/02 10:11:21;;;;;;;11.60;5.00;;;12.00;99.90;;;;;;4989279;28;20043;-93
2022/01/02 10:13:54;;;;;;;13.68;5.00;;;12.10;99.90;;;;;;4988935;28;20048;-96
2022/01/02 10:16:26;;;;;;;11.57;5.05;;;12.10;99.90;;;;;;5002060;28;20249;-96
2022/01/02 10:19:36;;;;;;;14.25;5.47;;;12.20;99.90;;;;;;5014859;28;20059;-90
2022/01/02 10:22:09;;;;;;;13.48;5.55;;;12.20;99.90;;;;;;5009569;28;20036;-90
2022/01/02 10:24:47;;;;;;;11.77;5.10;;;12.30;99.90;;;;;;4990558;28;20043;-92
2022/01/02 10:27:34;;;;;;;13.95;5.00;;;12.50;99.90;;;;;;4973131;28;20040;-96
2022/01/02 10:30:03;;;;;;;11.00;5.05;;;12.50;99.90;;;;;;4995962;28;20056;-93
2022/01/02 10:32:49;;;;;;;11.68;4.50;;;12.50;99.90;;;;;;5013344;28;20207;-93
2022/01/02 10:35:22;;;;;;;11.98;5.18;;;12.40;99.90;;;;;;4980155;28;20422;-92
2022/01/02 10:37:55;;;;;;;12.10;4.80;;;12.60;99.90;;;;;;5012520;28;20044;-95
2022/01/02 10:40:35;;;;;;;9.90;4.70;;;12.90;99.90;;;;;;4986031;28;20378;-94
2022/01/02 10:43:10;;;;;;;10.02;4.70;;;13.00;99.90;;;;;;4992833;28;20040;-95
2022/01/02 10:45:48;;;;;;;10.98;4.85;;;13.10;99.90;;;;;;4990603;28;20040;-91
2022/01/02 10:48:18;;;;;;;13.02;5.20;;;13.00;99.90;;;;;;4987640;28;20048;-94
2022/01/02 10:51:19;;;;;;;11.88;5.10;;;12.80;99.90;;;;;;4996678;28;20036;-88
2022/01/02 10:54:06;;;;;;;10.67;4.60;;;12.80;99.90;;;;;;4992646;28;20334;-94
2022/01/02 10:56:47;;;;;;;12.63;4.70;;;12.70;99.90;;;;;;4996184;28;20576;-95
2022/01/02 10:59:22;;;;;;;11.45;5.25;;;12.70;99.90;;;;;;4979078;28;20051;-92
2022/01/02 11:01:48;;;;;;;10.43;4.47;;;12.60;99.90;;;;;;4982410;28;20054;-92
2022/01/02 11:04:16;;;;;;;9.93;5.07;;;12.60;99.90;;;;;;4975551;28;20048;-90
2022/01/02 11:06:45;;;;;;;10.02;5.20;;;12.60;99.90;;;;;;4988910;28;20572;-89
2022/01/02 11:09:13;;;;;;;9.80;5.28;;;12.60;99.90;;;;;;4988228;28;20969;-93
2022/01/02 11:11:38;;;;;;;11.10;5.35;;;12.60;99.90;;;;;;5014826;28;20040;-91
2022/01/02 11:14:07;;;;;;;10.32;5.30;;;12.60;99.90;;;;;;4988407;28;20040;-89
2022/01/02 11:16:39;;;;;;;11.50;5.65;;;12.60;99.90;;;;;;5019158;28;20363;-93
2022/01/02 11:19:05;;;;;;;11.95;5.65;;;12.60;99.90;;;;;;4991928;28;20240;-94
2022/01/02 11:21:35;;;;;;;11.85;5.47;;;12.50;99.90;;;;;;4990625;28;20093;-87
2022/01/02 11:24:18;;;;;;;10.82;5.70;;;12.50;99.90;;;;;;5008386;28;20428;-90
2022/01/02 11:26:59;;;;;;;12.20;5.83;;;12.50;99.90;;;;;;5004428;28;20048;-87
2022/01/02 11:29:27;;;;;;;13.05;5.70;;;12.40;99.90;;;;;;5003086;28;20427;-90
2022/01/02 11:31:56;;;;;;;10.27;5.60;;;12.40;99.90;;;;;;4983521;28;20043;-94
2022/01/02 11:34:27;;;;;;;16.60;6.10;;;12.50;99.90;;;;;;5004137;28;20040;-91
2022/01/02 11:37:13;;;;;;;10.57;5.38;;;12.40;99.90;;;;;;4988511;28;20063;-93
2022/01/02 11:39:57;;;;;;;12.90;5.50;;;12.50;99.90;;;;;;4990559;28;20040;-87
2022/01/02 11:42:35;;;;;;;10.40;5.22;;;12.50;99.90;;;;;;4991660;28;20274;-86
2022/01/02 11:45:24;;;;;;;10.73;5.40;;;12.50;99.90;;;;;;5011937;28;20047;-90
2022/01/02 11:47:50;;;;;;;11.25;5.28;;;12.50;99.90;;;;;;4992762;28;20113;-86
2022/01/02 11:50:43;;;;;;;10.50;5.20;;;12.50;99.90;;;;;;4996443;28;20056;-87
2022/01/02 11:53:19;;;;;;;11.63;5.20;;;12.50;99.90;;;;;;5018268;28;20055;-92
2022/01/02 11:55:49;;;;;;;12.93;5.00;;;12.40;99.90;;;;;;5000453;28;20168;-90
2022/01/02 11:58:39;;;;;;;11.23;5.25;;;12.40;99.90;;;;;;4994895;28;20290;-91
2022/01/02 12:01:08;;;;;;;14.60;5.82;;;12.30;99.90;;;;;;4996380;28;20047;-92
2022/01/02 12:03:40;;;;;;;11.20;5.32;;;12.30;99.90;;;;;;5025644;28;20071;-88
2022/01/02 12:06:21;;;;;;;8.80;5.30;;;12.20;99.90;;;;;;5022407;28;20120;-90
2022/01/02 12:08:51;;;;;;;11.00;5.40;;;12.20;99.90;;;;;;5004542;28;20044;-95
2022/01/02 12:11:36;;;;;;;10.30;5.72;;;12.20;99.90;;;;;;5028183;28;20043;-91
2022/01/02 12:14:15;;;;;;;10.63;5.80;;;12.20;99.90;;;;;;5000330;28;20150;-93
2022/01/02 12:16:52;;;;;;;9.55;5.30;;;12.30;99.90;;;;;;4998651;28;20057;-93
2022/01/02 12:19:18;;;;;;;14.52;6.10;;;12.30;99.90;;;;;;5003138;28;20043;-92
2022/01/02 12:22:13;;;;;;;13.40;5.90;;;12.30;99.90;;;;;;5005031;28;20384;-92
2022/01/02 12:24:46;;;;;;;12.50;6.40;;;12.30;99.90;;;;;;5003781;28;20482;-94
2022/01/02 12:27:16;;;;;;;9.95;5.55;;;12.20;99.90;;;;;;4990084;28;21057;-94
2022/01/02 12:29:42;;;;;;;13.23;5.95;;;12.30;99.90;;;;;;4980140;28;20150;-89
2022/01/02 12:32:09;;;;;;;10.77;5.20;;;12.30;99.90;;;;;;5006490;28;20047;-93
2022/01/02 12:34:35;;;;;;;11.85;5.13;;;12.30;99.90;;;;;;5013145;28;20135;-86
2022/01/02 12:37:11;;;;;;;15.13;6.00;;;12.40;99.90;;;;;;5002382;28;20432;-94
2022/01/02 12:39:40;;;;;;;12.43;5.47;;;12.50;99.90;;;;;;5000341;28;20043;-92
2022/01/02 12:42:16;;;;;;;13.75;5.50;;;12.40;99.90;;;;;;5023013;28;20379;-92
2022/01/02 12:44:43;;;;;;;11.48;4.78;;;12.40;99.90;;;;;;4995529;28;20055;-88
2022/01/02 12:47:12;;;;;;;10.00;4.45;;;12.50;99.90;;;;;;4995475;28;20118;-94
2022/01/02 12:49:41;;;;;;;11.95;5.18;;;12.40;99.90;;;;;;4983142;28;20112;-90
2022/01/02 12:52:12;;;;;;;9.98;4.32;;;12.40;99.90;;;;;;4995184;28;20040;-92
2022/01/02 12:54:43;;;;;;;10.80;4.47;;;12.40;99.90;;;;;;5014749;28;20040;-87
2022/01/02 12:57:14;;;;;;;13.55;4.40;;;12.40;99.90;;;;;;4982072;28;20047;-89
2022/01/02 12:59:42;;;;;;;12.88;4.18;;;12.30;99.90;;;;;;4986921;28;20039;-92
2022/01/02 13:02:16;;;;;;;12.20;3.92;;;12.30;99.90;;;;;;4985313;28;20039;-89